sensor_id;sensor_type;location;lat;lon;timestamp;pressure;altitude;pressure_sealevel;temperature;humidity
47706;BME280;33471;52.104;1.318;2023-03-26T00:02:02;100112.96;;;12.26;42.89
47706;BME280;33471;52.104;1.318;2023-03-26T00:04:29;100112.22;;;11.87;43.01
47706;BME280;33471;52.104;1.318;2023-03-26T00:06:56;100111.33;;;12.21;43.17
47706;BME280;33471;52.104;1.318;2023-03-26T00:09:23;100110.83;;;12.19;43.29
47706;BME280;33471;52.104;1.318;2023-03-26T00:11:50;100109.61;;;11.62;43.44
47706;BME280;33471;52.104;1.318;2023-03-26T00:14:18;100105.18;;;11.99;43.55
47706;BME280;33471;52.104;1.318;2023-03-26T00:16:45;100105.28;;;11.99;43.62
47706;BME280;33471;52.104;1.318;2023-03-26T00:19:12;100109.65;;;11.57;44.15
47706;BME280;33471;52.104;1.318;2023-03-26T00:21:39;100105.02;;;11.68;43.94
47706;BME280;33471;52.104;1.318;2023-03-26T00:24:09;100099.45;;;11.78;43.85
47706;BME280;33471;52.104;1.318;2023-03-26T00:26:36;100097.96;;;11.95;43.85
47706;BME280;33471;52.104;1.318;2023-03-26T00:29:04;100097.44;;;11.66;43.88
47706;BME280;33471;52.104;1.318;2023-03-26T00:31:32;100095.04;;;11.38;43.96
47706;BME280;33471;52.104;1.318;2023-03-26T00:34:00;100092.89;;;11.62;44.03
47706;BME280;33471;52.104;1.318;2023-03-26T00:36:27;100087.16;;;11.36;44.25
47706;BME280;33471;52.104;1.318;2023-03-26T00:38:55;100083.42;;;11.48;44.61
47706;BME280;33471;52.104;1.318;2023-03-26T00:41:23;100079.26;;;11.34;44.77
47706;BME280;33471;52.104;1.318;2023-03-26T00:43:53;100075.98;;;11.29;44.97
47706;BME280;33471;52.104;1.318;2023-03-26T00:46:21;100071.94;;;11.32;44.93
47706;BME280;33471;52.104;1.318;2023-03-26T00:48:48;100073.55;;;11.62;44.89
47706;BME280;33471;52.104;1.318;2023-03-26T00:51:16;100070.84;;;11.43;45.03
47706;BME280;33471;52.104;1.318;2023-03-26T00:53:45;100064.42;;;11.16;45.33
47706;BME280;33471;52.104;1.318;2023-03-26T00:56:14;100057.86;;;11.45;45.37
47706;BME280;33471;52.104;1.318;2023-03-26T00:58:42;100049.42;;;11.60;44.88
47706;BME280;33471;52.104;1.318;2023-03-26T01:01:10;100042.19;;;11.62;45.40
47706;BME280;33471;52.104;1.318;2023-03-26T01:03:39;100039.65;;;11.63;45.32
47706;BME280;33471;52.104;1.318;2023-03-26T01:06:10;100036.50;;;11.65;45.31
47706;BME280;33471;52.104;1.318;2023-03-26T01:08:40;100031.74;;;12.25;44.81
47706;BME280;33471;52.104;1.318;2023-03-26T01:11:12;100032.15;;;12.36;44.92
47706;BME280;33471;52.104;1.318;2023-03-26T01:13:43;100025.23;;;11.72;45.04
47706;BME280;33471;52.104;1.318;2023-03-26T01:16:18;100020.73;;;12.25;45.63
47706;BME280;33471;52.104;1.318;2023-03-26T01:18:47;100026.03;;;12.09;45.21
47706;BME280;33471;52.104;1.318;2023-03-26T01:21:19;100030.94;;;12.66;44.96
47706;BME280;33471;52.104;1.318;2023-03-26T01:23:49;100030.84;;;12.56;45.23
47706;BME280;33471;52.104;1.318;2023-03-26T01:26:27;100027.67;;;12.27;46.14
47706;BME280;33471;52.104;1.318;2023-03-26T01:28:59;100021.45;;;12.26;46.01
47706;BME280;33471;52.104;1.318;2023-03-26T01:31:31;100015.23;;;11.32;45.62
47706;BME280;33471;52.104;1.318;2023-03-26T01:34:06;100011.08;;;11.92;45.81
47706;BME280;33471;52.104;1.318;2023-03-26T01:36:41;100006.61;;;12.19;45.69
47706;BME280;33471;52.104;1.318;2023-03-26T01:39:16;100000.57;;;12.10;45.55
47706;BME280;33471;52.104;1.318;2023-03-26T01:41:48;99995.90;;;12.27;45.68
47706;BME280;33471;52.104;1.318;2023-03-26T01:44:23;99994.09;;;12.46;45.44
47706;BME280;33471;52.104;1.318;2023-03-26T01:46:53;99989.40;;;12.44;45.41
47706;BME280;33471;52.104;1.318;2023-03-26T01:49:21;99983.75;;;12.34;45.21
47706;BME280;33471;52.104;1.318;2023-03-26T01:51:50;99980.04;;;12.37;45.01
47706;BME280;33471;52.104;1.318;2023-03-26T01:54:19;99979.39;;;12.68;44.84
47706;BME280;33471;52.104;1.318;2023-03-26T01:56:54;99978.73;;;12.11;44.75
47706;BME280;33471;52.104;1.318;2023-03-26T01:59:42;99978.94;;;12.41;44.43
47706;BME280;33471;52.104;1.318;2023-03-26T02:02:14;99979.46;;;12.03;44.54
47706;BME280;33471;52.104;1.318;2023-03-26T02:04:50;99972.97;;;12.13;45.34
47706;BME280;33471;52.104;1.318;2023-03-26T02:07:24;99970.85;;;12.22;44.92
47706;BME280;33471;52.104;1.318;2023-03-26T02:09:56;99966.29;;;12.04;44.89
47706;BME280;33471;52.104;1.318;2023-03-26T02:12:26;99962.11;;;12.35;45.13
47706;BME280;33471;52.104;1.318;2023-03-26T02:14:54;99963.36;;;12.61;44.63
47706;BME280;33471;52.104;1.318;2023-03-26T02:17:21;99958.10;;;12.28;45.01
47706;BME280;33471;52.104;1.318;2023-03-26T02:19:49;99952.94;;;11.96;44.28
47706;BME280;33471;52.104;1.318;2023-03-26T02:22:16;99947.86;;;12.44;45.06
47706;BME280;33471;52.104;1.318;2023-03-26T02:24:44;99946.78;;;12.20;44.60
47706;BME280;33471;52.104;1.318;2023-03-26T02:27:11;99942.95;;;12.25;44.84
47706;BME280;33471;52.104;1.318;2023-03-26T02:29:39;99940.06;;;12.56;44.27
47706;BME280;33471;52.104;1.318;2023-03-26T02:32:08;99934.15;;;12.32;44.75
47706;BME280;33471;52.104;1.318;2023-03-26T02:34:35;99926.97;;;11.90;45.00
47706;BME280;33471;52.104;1.318;2023-03-26T02:37:02;99923.53;;;12.20;44.79
47706;BME280;33471;52.104;1.318;2023-03-26T02:39:29;99924.01;;;11.69;45.16
47706;BME280;33471;52.104;1.318;2023-03-26T02:41:56;99917.87;;;11.98;45.36
47706;BME280;33471;52.104;1.318;2023-03-26T02:44:24;99912.70;;;12.21;45.20
47706;BME280;33471;52.104;1.318;2023-03-26T02:46:51;99903.13;;;12.12;45.89
47706;BME280;33471;52.104;1.318;2023-03-26T02:49:18;99899.75;;;12.26;45.92
47706;BME280;33471;52.104;1.318;2023-03-26T02:51:46;99897.53;;;12.03;46.01
47706;BME280;33471;52.104;1.318;2023-03-26T02:54:14;99892.16;;;12.17;45.94
47706;BME280;33471;52.104;1.318;2023-03-26T02:56:41;99885.27;;;12.16;46.28
47706;BME280;33471;52.104;1.318;2023-03-26T02:59:07;99880.17;;;11.91;46.29
47706;BME280;33471;52.104;1.318;2023-03-26T03:01:34;99871.02;;;12.23;46.06
47706;BME280;33471;52.104;1.318;2023-03-26T03:04:02;99870.59;;;12.12;46.05
47706;BME280;33471;52.104;1.318;2023-03-26T03:06:29;99869.18;;;11.88;46.26
47706;BME280;33471;52.104;1.318;2023-03-26T03:08:56;99865.57;;;12.31;45.93
47706;BME280;33471;52.104;1.318;2023-03-26T03:11:24;99869.13;;;12.09;45.87
47706;BME280;33471;52.104;1.318;2023-03-26T03:13:52;99869.33;;;12.48;45.79
47706;BME280;33471;52.104;1.318;2023-03-26T03:16:20;99869.76;;;12.13;46.03
47706;BME280;33471;52.104;1.318;2023-03-26T03:18:48;99867.44;;;12.24;46.20
47706;BME280;33471;52.104;1.318;2023-03-26T03:21:15;99865.74;;;12.11;46.59
47706;BME280;33471;52.104;1.318;2023-03-26T03:23:41;99862.48;;;12.02;45.97
47706;BME280;33471;52.104;1.318;2023-03-26T03:26:13;99857.79;;;12.33;46.53
47706;BME280;33471;52.104;1.318;2023-03-26T03:28:40;99854.38;;;12.14;46.22
47706;BME280;33471;52.104;1.318;2023-03-26T03:31:07;99854.92;;;12.42;46.51
47706;BME280;33471;52.104;1.318;2023-03-26T03:33:35;99849.40;;;11.64;46.38
47706;BME280;33471;52.104;1.318;2023-03-26T03:36:02;99843.26;;;12.69;45.51
47706;BME280;33471;52.104;1.318;2023-03-26T03:38:30;99842.50;;;12.46;45.54
47706;BME280;33471;52.104;1.318;2023-03-26T03:40:57;99842.17;;;12.03;46.11
47706;BME280;33471;52.104;1.318;2023-03-26T03:43:25;99839.67;;;12.76;45.65
47706;BME280;33471;52.104;1.318;2023-03-26T03:45:53;99834.54;;;13.00;45.76
47706;BME280;33471;52.104;1.318;2023-03-26T03:48:19;99828.11;;;12.77;46.10
47706;BME280;33471;52.104;1.318;2023-03-26T03:50:47;99820.65;;;12.76;46.00
47706;BME280;33471;52.104;1.318;2023-03-26T03:53:14;99819.01;;;13.01;45.76
47706;BME280;33471;52.104;1.318;2023-03-26T03:55:40;99814.64;;;12.11;46.28
47706;BME280;33471;52.104;1.318;2023-03-26T03:58:08;99809.67;;;11.95;46.99
47706;BME280;33471;52.104;1.318;2023-03-26T04:00:35;99802.90;;;11.36;47.81
47706;BME280;33471;52.104;1.318;2023-03-26T04:03:02;99798.70;;;12.22;47.11
47706;BME280;33471;52.104;1.318;2023-03-26T04:05:30;99797.40;;;11.73;48.39
47706;BME280;33471;52.104;1.318;2023-03-26T04:07:57;99792.71;;;11.75;49.71
47706;BME280;33471;52.104;1.318;2023-03-26T04:10:24;99788.52;;;11.50;48.99
47706;BME280;33471;52.104;1.318;2023-03-26T04:12:51;99788.44;;;11.16;50.63
47706;BME280;33471;52.104;1.318;2023-03-26T04:15:19;99790.96;;;11.54;50.39
47706;BME280;33471;52.104;1.318;2023-03-26T04:17:46;99787.25;;;10.96;51.28
47706;BME280;33471;52.104;1.318;2023-03-26T04:20:13;99783.96;;;11.39;50.68
47706;BME280;33471;52.104;1.318;2023-03-26T04:22:41;99783.42;;;11.69;50.92
47706;BME280;33471;52.104;1.318;2023-03-26T04:25:09;99782.78;;;10.76;51.39
47706;BME280;33471;52.104;1.318;2023-03-26T04:27:37;99780.06;;;10.82;51.69
47706;BME280;33471;52.104;1.318;2023-03-26T04:30:07;99779.30;;;11.29;51.69
47706;BME280;33471;52.104;1.318;2023-03-26T04:32:34;99777.21;;;10.82;52.01
47706;BME280;33471;52.104;1.318;2023-03-26T04:35:02;99771.65;;;11.32;51.52
47706;BME280;33471;52.104;1.318;2023-03-26T04:37:31;99769.01;;;10.22;52.65
47706;BME280;33471;52.104;1.318;2023-03-26T04:39:59;99767.50;;;11.36;51.72
47706;BME280;33471;52.104;1.318;2023-03-26T04:42:27;99764.13;;;11.17;51.19
47706;BME280;33471;52.104;1.318;2023-03-26T04:44:54;99764.43;;;12.45;49.65
47706;BME280;33471;52.104;1.318;2023-03-26T04:47:21;99763.29;;;12.38;49.49
47706;BME280;33471;52.104;1.318;2023-03-26T04:49:48;99762.87;;;12.18;49.68
47706;BME280;33471;52.104;1.318;2023-03-26T04:52:15;99760.91;;;12.15;50.36
47706;BME280;33471;52.104;1.318;2023-03-26T04:54:43;99761.01;;;11.30;51.85
47706;BME280;33471;52.104;1.318;2023-03-26T04:57:16;99763.26;;;11.17;50.98
47706;BME280;33471;52.104;1.318;2023-03-26T04:59:46;99758.83;;;11.51;51.36
47706;BME280;33471;52.104;1.318;2023-03-26T05:02:13;99757.91;;;11.50;51.54
47706;BME280;33471;52.104;1.318;2023-03-26T05:04:40;99758.90;;;11.32;50.71
47706;BME280;33471;52.104;1.318;2023-03-26T05:07:09;99754.33;;;11.61;51.26
47706;BME280;33471;52.104;1.318;2023-03-26T05:09:36;99756.23;;;11.66;50.73
47706;BME280;33471;52.104;1.318;2023-03-26T05:12:03;99757.92;;;11.09;52.35
47706;BME280;33471;52.104;1.318;2023-03-26T05:14:31;99756.15;;;11.60;51.27
47706;BME280;33471;52.104;1.318;2023-03-26T05:16:57;99756.31;;;11.63;51.44
47706;BME280;33471;52.104;1.318;2023-03-26T05:19:27;99754.83;;;11.69;51.44
47706;BME280;33471;52.104;1.318;2023-03-26T05:21:54;99757.75;;;11.77;51.42
47706;BME280;33471;52.104;1.318;2023-03-26T05:24:21;99757.90;;;11.72;51.46
47706;BME280;33471;52.104;1.318;2023-03-26T05:26:48;99756.92;;;11.92;51.29
47706;BME280;33471;52.104;1.318;2023-03-26T05:29:16;99755.79;;;12.34;50.75
47706;BME280;33471;52.104;1.318;2023-03-26T05:31:43;99754.72;;;12.43;50.20
47706;BME280;33471;52.104;1.318;2023-03-26T05:34:10;99753.65;;;12.29;50.36
47706;BME280;33471;52.104;1.318;2023-03-26T05:36:37;99752.95;;;12.76;49.89
47706;BME280;33471;52.104;1.318;2023-03-26T05:39:04;99752.66;;;11.95;50.22
47706;BME280;33471;52.104;1.318;2023-03-26T05:41:31;99752.38;;;12.21;49.98
47706;BME280;33471;52.104;1.318;2023-03-26T05:43:58;99750.15;;;12.07;50.49
47706;BME280;33471;52.104;1.318;2023-03-26T05:46:26;99747.49;;;12.09;50.27
47706;BME280;33471;52.104;1.318;2023-03-26T05:48:53;99751.06;;;12.65;49.83
47706;BME280;33471;52.104;1.318;2023-03-26T05:51:20;99749.42;;;12.61;49.72
47706;BME280;33471;52.104;1.318;2023-03-26T05:53:48;99749.25;;;12.34;49.73
47706;BME280;33471;52.104;1.318;2023-03-26T05:56:15;99746.41;;;12.61;49.62
47706;BME280;33471;52.104;1.318;2023-03-26T05:58:42;99748.06;;;11.80;50.19
47706;BME280;33471;52.104;1.318;2023-03-26T06:03:03;99748.18;;;12.91;48.21
47706;BME280;33471;52.104;1.318;2023-03-26T06:05:31;99748.82;;;12.06;48.77
47706;BME280;33471;52.104;1.318;2023-03-26T06:07:58;99745.87;;;12.62;48.71
47706;BME280;33471;52.104;1.318;2023-03-26T06:10:26;99751.39;;;11.84;49.74
47706;BME280;33471;52.104;1.318;2023-03-26T06:12:52;99749.93;;;11.68;50.43
47706;BME280;33471;52.104;1.318;2023-03-26T06:15:19;99750.18;;;11.56;50.37
47706;BME280;33471;52.104;1.318;2023-03-26T06:17:47;99752.04;;;10.59;52.81
47706;BME280;33471;52.104;1.318;2023-03-26T06:20:14;99745.94;;;11.97;50.43
47706;BME280;33471;52.104;1.318;2023-03-26T06:22:42;99750.32;;;11.12;51.67
47706;BME280;33471;52.104;1.318;2023-03-26T06:25:09;99750.98;;;11.29;51.87
47706;BME280;33471;52.104;1.318;2023-03-26T06:27:36;99753.75;;;11.54;51.27
47706;BME280;33471;52.104;1.318;2023-03-26T06:30:03;99758.88;;;11.14;52.12
47706;BME280;33471;52.104;1.318;2023-03-26T06:32:31;99760.13;;;11.03;51.70
47706;BME280;33471;52.104;1.318;2023-03-26T06:34:59;99763.41;;;11.52;52.04
47706;BME280;33471;52.104;1.318;2023-03-26T06:37:25;99766.50;;;11.91;51.44
47706;BME280;33471;52.104;1.318;2023-03-26T06:39:52;99770.55;;;11.17;52.85
47706;BME280;33471;52.104;1.318;2023-03-26T06:42:20;99772.35;;;10.55;54.00
47706;BME280;33471;52.104;1.318;2023-03-26T06:44:47;99773.85;;;11.26;51.37
47706;BME280;33471;52.104;1.318;2023-03-26T06:47:14;99774.87;;;11.71;51.97
47706;BME280;33471;52.104;1.318;2023-03-26T06:49:42;99780.00;;;11.39;52.43
47706;BME280;33471;52.104;1.318;2023-03-26T06:52:09;99784.43;;;10.36;53.35
47706;BME280;33471;52.104;1.318;2023-03-26T06:54:35;99788.55;;;10.62;54.12
47706;BME280;33471;52.104;1.318;2023-03-26T06:57:03;99786.98;;;10.86;53.08
47706;BME280;33471;52.104;1.318;2023-03-26T06:59:35;99797.99;;;10.07;54.42
47706;BME280;33471;52.104;1.318;2023-03-26T07:02:03;99803.01;;;11.04;52.97
47706;BME280;33471;52.104;1.318;2023-03-26T07:04:30;99805.11;;;11.14;51.52
47706;BME280;33471;52.104;1.318;2023-03-26T07:06:58;99808.32;;;11.51;50.79
47706;BME280;33471;52.104;1.318;2023-03-26T07:09:26;99814.79;;;11.82;51.30
47706;BME280;33471;52.104;1.318;2023-03-26T07:11:53;99819.82;;;11.63;51.21
47706;BME280;33471;52.104;1.318;2023-03-26T07:14:20;99817.45;;;11.91;50.18
47706;BME280;33471;52.104;1.318;2023-03-26T07:16:47;99816.42;;;12.17;49.74
47706;BME280;33471;52.104;1.318;2023-03-26T07:19:14;99819.05;;;11.98;50.49
47706;BME280;33471;52.104;1.318;2023-03-26T07:21:42;99818.97;;;11.94;50.18
47706;BME280;33471;52.104;1.318;2023-03-26T07:24:10;99820.69;;;12.51;49.30
47706;BME280;33471;52.104;1.318;2023-03-26T07:26:48;99823.91;;;12.24;49.31
47706;BME280;33471;52.104;1.318;2023-03-26T07:29:25;99827.28;;;12.88;49.19
47706;BME280;33471;52.104;1.318;2023-03-26T07:32:01;99835.64;;;12.49;48.86
47706;BME280;33471;52.104;1.318;2023-03-26T07:34:40;99838.08;;;12.06;48.96
47706;BME280;33471;52.104;1.318;2023-03-26T07:37:16;99841.43;;;12.71;48.47
47706;BME280;33471;52.104;1.318;2023-03-26T07:39:52;99842.57;;;12.49;47.82
47706;BME280;33471;52.104;1.318;2023-03-26T07:42:32;99842.26;;;12.43;49.44
47706;BME280;33471;52.104;1.318;2023-03-26T07:45:12;99841.51;;;12.07;50.00
47706;BME280;33471;52.104;1.318;2023-03-26T07:47:43;99847.53;;;12.07;49.26
47706;BME280;33471;52.104;1.318;2023-03-26T07:50:14;99852.28;;;11.63;49.24
47706;BME280;33471;52.104;1.318;2023-03-26T07:52:43;99848.60;;;11.74;49.58
47706;BME280;33471;52.104;1.318;2023-03-26T07:55:13;99849.09;;;12.19;49.76
47706;BME280;33471;52.104;1.318;2023-03-26T07:57:48;99853.93;;;12.42;48.74
47706;BME280;33471;52.104;1.318;2023-03-26T08:00:21;99848.63;;;13.04;48.00
47706;BME280;33471;52.104;1.318;2023-03-26T08:03:20;99854.27;;;12.14;48.87
47706;BME280;33471;52.104;1.318;2023-03-26T08:05:59;99853.63;;;12.63;48.36
47706;BME280;33471;52.104;1.318;2023-03-26T08:08:37;99857.76;;;12.41;48.83
47706;BME280;33471;52.104;1.318;2023-03-26T08:11:12;99861.30;;;13.14;47.20
47706;BME280;33471;52.104;1.318;2023-03-26T08:13:52;99868.02;;;13.06;47.63
47706;BME280;33471;52.104;1.318;2023-03-26T08:16:23;99876.56;;;12.41;48.09
47706;BME280;33471;52.104;1.318;2023-03-26T08:18:58;99879.80;;;12.54;48.48
47706;BME280;33471;52.104;1.318;2023-03-26T08:21:30;99883.09;;;13.22;47.83
47706;BME280;33471;52.104;1.318;2023-03-26T08:24:06;99885.02;;;12.79;47.93
47706;BME280;33471;52.104;1.318;2023-03-26T08:26:41;99890.07;;;12.57;47.05
47706;BME280;33471;52.104;1.318;2023-03-26T08:29:19;99897.92;;;12.81;48.19
47706;BME280;33471;52.104;1.318;2023-03-26T08:31:51;99903.63;;;10.79;51.97
47706;BME280;33471;52.104;1.318;2023-03-26T08:34:18;99906.06;;;12.30;49.28
47706;BME280;33471;52.104;1.318;2023-03-26T08:36:45;99906.65;;;12.39;48.75
47706;BME280;33471;52.104;1.318;2023-03-26T08:39:13;99908.64;;;12.07;48.63
47706;BME280;33471;52.104;1.318;2023-03-26T08:42:57;99917.59;;;11.75;52.43
47706;BME280;33471;52.104;1.318;2023-03-26T08:45:52;99922.95;;;9.95;55.14
47706;BME280;33471;52.104;1.318;2023-03-26T08:48:56;99926.32;;;8.65;59.58
47706;BME280;33471;52.104;1.318;2023-03-26T08:51:43;99934.39;;;8.85;59.91
47706;BME280;33471;52.104;1.318;2023-03-26T08:54:56;99938.00;;;8.35;60.92
47706;BME280;33471;52.104;1.318;2023-03-26T08:57:54;99944.65;;;7.98;62.01
47706;BME280;33471;52.104;1.318;2023-03-26T09:00:38;99950.89;;;8.36;62.28
47706;BME280;33471;52.104;1.318;2023-03-26T09:03:19;99953.01;;;7.48;63.70
47706;BME280;33471;52.104;1.318;2023-03-26T09:06:54;99961.16;;;8.78;63.72
47706;BME280;33471;52.104;1.318;2023-03-26T09:10:15;99969.10;;;8.81;62.64
47706;BME280;33471;52.104;1.318;2023-03-26T09:13:23;99970.99;;;7.67;62.72
47706;BME280;33471;52.104;1.318;2023-03-26T09:17:50;99980.22;;;7.80;63.10
47706;BME280;33471;52.104;1.318;2023-03-26T09:21:00;99988.79;;;7.77;64.06
47706;BME280;33471;52.104;1.318;2023-03-26T09:24:03;99999.34;;;7.70;62.33
47706;BME280;33471;52.104;1.318;2023-03-26T09:26:45;99996.42;;;7.62;62.48
47706;BME280;33471;52.104;1.318;2023-03-26T09:30:32;100002.32;;;8.53;62.96
47706;BME280;33471;52.104;1.318;2023-03-26T09:33:55;100023.15;;;8.04;64.43
47706;BME280;33471;52.104;1.318;2023-03-26T09:36:33;100028.54;;;6.51;66.63
47706;BME280;33471;52.104;1.318;2023-03-26T09:39:12;100022.70;;;7.01;64.77
47706;BME280;33471;52.104;1.318;2023-03-26T09:41:46;100030.12;;;6.48;64.87
47706;BME280;33471;52.104;1.318;2023-03-26T09:44:38;100035.79;;;6.83;65.08
47706;BME280;33471;52.104;1.318;2023-03-26T09:47:28;100044.20;;;6.78;65.70
47706;BME280;33471;52.104;1.318;2023-03-26T09:50:19;100054.12;;;6.79;65.42
47706;BME280;33471;52.104;1.318;2023-03-26T09:53:01;100061.24;;;7.05;65.16
47706;BME280;33471;52.104;1.318;2023-03-26T09:55:44;100067.43;;;6.27;65.11
47706;BME280;33471;52.104;1.318;2023-03-26T09:58:29;100066.52;;;7.17;64.65
47706;BME280;33471;52.104;1.318;2023-03-26T10:01:06;100074.00;;;7.28;63.82
47706;BME280;33471;52.104;1.318;2023-03-26T10:03:44;100074.65;;;7.29;62.22
47706;BME280;33471;52.104;1.318;2023-03-26T10:06:35;100079.69;;;7.95;60.96
47706;BME280;33471;52.104;1.318;2023-03-26T10:09:13;100086.60;;;7.17;62.16
47706;BME280;33471;52.104;1.318;2023-03-26T10:12:00;100087.48;;;7.23;61.08
47706;BME280;33471;52.104;1.318;2023-03-26T10:14:36;100099.55;;;7.45;60.66
47706;BME280;33471;52.104;1.318;2023-03-26T10:17:19;100104.40;;;7.84;60.26
47706;BME280;33471;52.104;1.318;2023-03-26T10:20:01;100119.62;;;7.10;62.27
47706;BME280;33471;52.104;1.318;2023-03-26T10:22:40;100125.56;;;6.87;62.56
47706;BME280;33471;52.104;1.318;2023-03-26T10:25:21;100133.62;;;7.26;62.08
47706;BME280;33471;52.104;1.318;2023-03-26T10:28:04;100139.70;;;7.31;61.59
47706;BME280;33471;52.104;1.318;2023-03-26T10:30:48;100141.12;;;7.14;61.42
47706;BME280;33471;52.104;1.318;2023-03-26T10:33:29;100145.82;;;8.13;59.73
47706;BME280;33471;52.104;1.318;2023-03-26T10:36:10;100147.80;;;7.91;59.78
47706;BME280;33471;52.104;1.318;2023-03-26T10:38:52;100157.08;;;7.93;59.36
47706;BME280;33471;52.104;1.318;2023-03-26T10:41:31;100163.81;;;7.28;59.22
47706;BME280;33471;52.104;1.318;2023-03-26T10:44:18;100175.73;;;7.55;59.37
47706;BME280;33471;52.104;1.318;2023-03-26T10:47:00;100181.36;;;6.67;61.91
47706;BME280;33471;52.104;1.318;2023-03-26T10:49:42;100185.14;;;5.98;61.53
47706;BME280;33471;52.104;1.318;2023-03-26T10:52:15;100193.04;;;7.21;59.81
47706;BME280;33471;52.104;1.318;2023-03-26T10:54:52;100195.59;;;8.19;58.20
47706;BME280;33471;52.104;1.318;2023-03-26T10:57:30;100203.03;;;7.01;58.79
47706;BME280;33471;52.104;1.318;2023-03-26T11:00:12;100207.90;;;7.54;57.53
47706;BME280;33471;52.104;1.318;2023-03-26T11:02:44;100207.32;;;7.99;56.36
47706;BME280;33471;52.104;1.318;2023-03-26T11:05:31;100217.38;;;7.76;58.05
47706;BME280;33471;52.104;1.318;2023-03-26T11:08:10;100219.01;;;8.37;55.60
47706;BME280;33471;52.104;1.318;2023-03-26T11:10:48;100220.52;;;8.38;56.08
47706;BME280;33471;52.104;1.318;2023-03-26T11:13:27;100231.10;;;8.36;54.70
47706;BME280;33471;52.104;1.318;2023-03-26T11:16:03;100236.64;;;8.19;55.03
47706;BME280;33471;52.104;1.318;2023-03-26T11:18:37;100245.42;;;7.79;55.49
47706;BME280;33471;52.104;1.318;2023-03-26T11:21:12;100244.76;;;8.25;55.62
47706;BME280;33471;52.104;1.318;2023-03-26T11:23:52;100258.09;;;8.04;54.18
47706;BME280;33471;52.104;1.318;2023-03-26T11:26:27;100256.14;;;8.02;52.22
47706;BME280;33471;52.104;1.318;2023-03-26T11:29:10;100257.66;;;8.44;52.73
47706;BME280;33471;52.104;1.318;2023-03-26T11:31:53;100258.62;;;8.48;51.86
47706;BME280;33471;52.104;1.318;2023-03-26T11:34:29;100265.30;;;8.60;52.01
47706;BME280;33471;52.104;1.318;2023-03-26T11:37:02;100269.51;;;8.30;52.80
47706;BME280;33471;52.104;1.318;2023-03-26T11:39:38;100282.44;;;7.83;52.44
47706;BME280;33471;52.104;1.318;2023-03-26T11:42:09;100284.43;;;8.02;52.30
47706;BME280;33471;52.104;1.318;2023-03-26T11:44:43;100291.74;;;7.98;52.65
47706;BME280;33471;52.104;1.318;2023-03-26T11:47:16;100295.92;;;9.12;51.04
47706;BME280;33471;52.104;1.318;2023-03-26T11:49:46;100307.94;;;8.51;52.32
47706;BME280;33471;52.104;1.318;2023-03-26T11:52:14;100308.95;;;8.12;53.55
47706;BME280;33471;52.104;1.318;2023-03-26T11:54:42;100315.75;;;8.04;52.19
47706;BME280;33471;52.104;1.318;2023-03-26T11:57:12;100329.37;;;8.80;52.99
47706;BME280;33471;52.104;1.318;2023-03-26T11:59:47;100321.42;;;8.36;51.57
47706;BME280;33471;52.104;1.318;2023-03-26T12:02:21;100331.34;;;7.56;52.44
47706;BME280;33471;52.104;1.318;2023-03-26T12:04:51;100333.38;;;7.42;51.89
47706;BME280;33471;52.104;1.318;2023-03-26T12:07:20;100338.38;;;8.02;51.67
47706;BME280;33471;52.104;1.318;2023-03-26T12:09:50;100338.75;;;7.63;51.82
47706;BME280;33471;52.104;1.318;2023-03-26T12:12:18;100351.46;;;7.98;52.28
47706;BME280;33471;52.104;1.318;2023-03-26T12:14:46;100355.33;;;7.83;51.83
47706;BME280;33471;52.104;1.318;2023-03-26T12:17:24;100355.74;;;8.03;52.55
47706;BME280;33471;52.104;1.318;2023-03-26T12:19:54;100363.95;;;8.43;50.28
47706;BME280;33471;52.104;1.318;2023-03-26T12:22:32;100373.46;;;7.94;51.85
47706;BME280;33471;52.104;1.318;2023-03-26T12:25:02;100375.78;;;8.15;51.00
47706;BME280;33471;52.104;1.318;2023-03-26T12:27:42;100382.22;;;7.70;51.05
47706;BME280;33471;52.104;1.318;2023-03-26T12:30:18;100385.02;;;7.66;51.52
47706;BME280;33471;52.104;1.318;2023-03-26T12:32:47;100392.67;;;8.78;49.39
47706;BME280;33471;52.104;1.318;2023-03-26T12:35:16;100397.09;;;8.59;49.54
47706;BME280;33471;52.104;1.318;2023-03-26T12:37:45;100404.77;;;8.89;49.43
47706;BME280;33471;52.104;1.318;2023-03-26T12:40:32;100409.92;;;9.26;48.67
47706;BME280;33471;52.104;1.318;2023-03-26T12:43:01;100412.87;;;7.42;50.08
47706;BME280;33471;52.104;1.318;2023-03-26T12:45:31;100420.74;;;8.53;48.45
47706;BME280;33471;52.104;1.318;2023-03-26T12:48:03;100433.07;;;7.49;49.80
47706;BME280;33471;52.104;1.318;2023-03-26T12:50:39;100427.39;;;7.51;49.43
47706;BME280;33471;52.104;1.318;2023-03-26T12:53:25;100437.80;;;8.26;48.25
47706;BME280;33471;52.104;1.318;2023-03-26T12:56:00;100444.31;;;9.02;46.16
47706;BME280;33471;52.104;1.318;2023-03-26T12:58:49;100449.75;;;8.51;48.02
47706;BME280;33471;52.104;1.318;2023-03-26T13:01:29;100448.82;;;8.60;48.49
47706;BME280;33471;52.104;1.318;2023-03-26T13:04:28;100449.23;;;8.09;49.02
47706;BME280;33471;52.104;1.318;2023-03-26T13:07:07;100451.57;;;7.66;48.97
47706;BME280;33471;52.104;1.318;2023-03-26T13:09:46;100462.01;;;6.52;50.57
47706;BME280;33471;52.104;1.318;2023-03-26T13:12:28;100465.72;;;7.24;49.24
47706;BME280;33471;52.104;1.318;2023-03-26T13:15:11;100472.27;;;7.92;48.58
47706;BME280;33471;52.104;1.318;2023-03-26T13:17:47;100472.50;;;8.19;48.19
47706;BME280;33471;52.104;1.318;2023-03-26T13:20:26;100475.36;;;8.15;47.02
47706;BME280;33471;52.104;1.318;2023-03-26T13:23:00;100479.74;;;8.34;46.48
47706;BME280;33471;52.104;1.318;2023-03-26T13:25:37;100485.25;;;8.50;45.15
47706;BME280;33471;52.104;1.318;2023-03-26T13:28:18;100481.98;;;9.71;44.28
47706;BME280;33471;52.104;1.318;2023-03-26T13:30:59;100489.46;;;9.16;44.42
47706;BME280;33471;52.104;1.318;2023-03-26T13:33:37;100496.29;;;8.72;45.65
47706;BME280;33471;52.104;1.318;2023-03-26T13:36:11;100498.79;;;8.35;46.89
47706;BME280;33471;52.104;1.318;2023-03-26T13:38:48;100504.18;;;7.88;46.91